createdAt,value
2018-02-25T00:01:39.563Z,3.80
2018-02-25T00:04:42.787Z,4.28
2018-02-25T00:07:46.034Z,4.15
2018-02-25T00:10:49.183Z,4.30
2018-02-25T00:13:53.661Z,4.10
2018-02-25T00:16:56.950Z,4.33
2018-02-25T00:20:00.249Z,4.40
2018-02-25T00:23:03.551Z,4.75
2018-02-25T00:26:06.864Z,4.67
2018-02-25T00:29:10.141Z,4.40
2018-02-25T00:32:13.366Z,4.50
2018-02-25T00:35:17.064Z,4.90
2018-02-25T00:38:21.131Z,4.65
2018-02-25T00:41:24.350Z,4.47
2018-02-25T00:44:27.498Z,4.67
2018-02-25T00:47:30.736Z,4.37
2018-02-25T00:50:33.888Z,4.85
2018-02-25T00:53:37.126Z,4.53
2018-02-25T00:56:40.471Z,4.90
2018-02-25T00:59:43.665Z,4.67
2018-02-25T01:02:46.938Z,5.17
2018-02-25T01:05:50.705Z,4.77
2018-02-25T01:08:54.083Z,5.47
2018-02-25T01:11:57.328Z,5.07
2018-02-25T01:15:00.604Z,5.13
2018-02-25T01:18:03.827Z,5.17
2018-02-25T01:21:07.125Z,4.83
2018-02-25T01:24:10.433Z,4.97
2018-02-25T01:27:13.657Z,5.03
2018-02-25T01:30:16.926Z,4.63
2018-02-25T01:33:20.385Z,4.90
2018-02-25T01:36:23.608Z,4.97
2018-02-25T01:39:26.925Z,4.37
2018-02-25T01:42:30.204Z,5.43
2018-02-25T01:45:33.415Z,5.17
2018-02-25T01:48:36.699Z,5.43
2018-02-25T01:51:39.913Z,5.40
2018-02-25T01:54:43.206Z,4.90
2018-02-25T01:57:46.480Z,4.95
2018-02-25T02:00:49.688Z,5.80
2018-02-25T02:03:52.951Z,5.10
2018-02-25T02:06:56.272Z,5.55
2018-02-25T02:09:59.435Z,5.80
2018-02-25T02:13:02.657Z,5.72
2018-02-25T02:16:05.872Z,6.00
2018-02-25T02:19:09.129Z,5.10
2018-02-25T02:22:12.423Z,5.30
2018-02-25T02:25:15.647Z,5.93
2018-02-25T02:28:18.952Z,5.90
2018-02-25T02:31:22.186Z,5.40
2018-02-25T02:34:25.429Z,6.20
2018-02-25T02:37:28.757Z,5.40
2018-02-25T02:40:32.080Z,5.53
2018-02-25T02:43:35.338Z,5.37
2018-02-25T02:46:38.579Z,6.40
2018-02-25T02:49:41.757Z,6.15
2018-02-25T02:52:45.024Z,6.25
2018-02-25T02:55:48.340Z,6.30
2018-02-25T02:58:51.555Z,6.35
2018-02-25T03:01:54.881Z,6.20
2018-02-25T03:04:58.007Z,6.58
2018-02-25T03:08:01.239Z,7.08
2018-02-25T03:11:04.528Z,6.58
2018-02-25T03:14:07.796Z,6.87
2018-02-25T03:17:11.043Z,6.27
2018-02-25T03:20:14.287Z,7.33
2018-02-25T03:23:17.759Z,7.10
2018-02-25T03:26:20.994Z,7.37
2018-02-25T03:29:24.302Z,7.62
2018-02-25T03:32:27.539Z,6.75
2018-02-25T03:35:30.969Z,7.15
2018-02-25T03:38:34.185Z,7.72
2018-02-25T03:41:37.484Z,7.28
2018-02-25T03:44:40.780Z,7.37
2018-02-25T03:47:44.088Z,7.63
2018-02-25T03:50:47.326Z,7.63
2018-02-25T03:53:50.576Z,7.97
2018-02-25T03:56:54.150Z,7.47
2018-02-25T03:59:57.370Z,8.03
2018-02-25T04:03:00.713Z,8.50
2018-02-25T04:06:03.966Z,8.05
2018-02-25T04:09:07.794Z,8.83
2018-02-25T04:12:11.067Z,8.73
2018-02-25T04:15:14.494Z,7.62
2018-02-25T04:18:17.775Z,8.70
2018-02-25T04:21:21.081Z,8.20
2018-02-25T04:24:24.361Z,8.97
2018-02-25T04:27:27.658Z,8.03
2018-02-25T04:30:30.959Z,7.95
2018-02-25T04:33:34.207Z,8.53
2018-02-25T04:36:37.451Z,8.70
2018-02-25T04:39:40.758Z,9.08
2018-02-25T04:42:44.267Z,8.70
2018-02-25T04:45:47.687Z,9.40
2018-02-25T04:48:50.954Z,8.70
2018-02-25T04:51:54.244Z,9.65
2018-02-25T04:54:57.507Z,9.90
2018-02-25T04:58:00.754Z,8.90
2018-02-25T05:01:04.105Z,9.60
2018-02-25T05:04:07.330Z,9.30
2018-02-25T05:07:10.630Z,9.53
2018-02-25T05:10:14.018Z,9.53
2018-02-25T05:13:17.268Z,9.33
2018-02-25T05:16:20.455Z,9.05
2018-02-25T05:19:23.673Z,10.03
2018-02-25T05:22:26.945Z,9.53
2018-02-25T05:25:30.208Z,9.60
2018-02-25T05:28:33.456Z,9.23
2018-02-25T05:31:36.715Z,8.27
2018-02-25T05:34:39.942Z,10.00
2018-02-25T05:37:43.263Z,8.73
2018-02-25T05:40:46.418Z,9.83
2018-02-25T05:43:49.688Z,9.57
2018-02-25T05:46:52.909Z,9.13
2018-02-25T05:49:56.190Z,10.03
2018-02-25T05:53:00.529Z,8.67
2018-02-25T05:56:03.770Z,9.80
2018-02-25T05:59:06.942Z,9.33
2018-02-25T06:02:10.148Z,10.03
2018-02-25T06:05:13.441Z,9.00
2018-02-25T06:08:16.732Z,9.87
2018-02-25T06:11:19.922Z,9.57
2018-02-25T06:14:23.182Z,9.13
2018-02-25T06:17:26.421Z,9.23
2018-02-25T06:20:29.704Z,10.10
2018-02-25T06:23:32.993Z,9.93
2018-02-25T06:26:36.301Z,9.10
2018-02-25T06:29:39.818Z,9.67
2018-02-25T06:32:43.181Z,10.77
2018-02-25T06:35:46.377Z,9.93
2018-02-25T06:38:49.517Z,9.57
2018-02-25T06:41:52.809Z,9.83
2018-02-25T06:44:56.059Z,10.50
2018-02-25T06:47:59.353Z,9.67
2018-02-25T06:51:02.549Z,9.33
2018-02-25T06:54:05.790Z,9.60
2018-02-25T06:57:09.058Z,10.17
2018-02-25T07:00:12.301Z,8.83
2018-02-25T07:03:15.622Z,9.23
2018-02-25T07:06:18.879Z,8.67
2018-02-25T07:09:22.463Z,9.60
2018-02-25T07:12:25.726Z,9.37
2018-02-25T07:15:29.026Z,9.37
2018-02-25T07:18:32.335Z,9.93
2018-02-25T07:21:35.613Z,10.03
2018-02-25T07:24:38.950Z,8.77
2018-02-25T07:27:42.218Z,8.93
2018-02-25T07:30:45.450Z,9.97
2018-02-25T07:33:48.783Z,9.40
2018-02-25T07:36:51.947Z,9.47
2018-02-25T07:39:55.180Z,9.57
2018-02-25T07:42:58.418Z,9.83
2018-02-25T07:46:01.638Z,9.93
2018-02-25T07:49:05.275Z,10.20
2018-02-25T07:52:08.607Z,10.23
2018-02-25T07:55:11.857Z,10.90
2018-02-25T07:58:15.257Z,9.27
2018-02-25T08:01:18.527Z,9.40
2018-02-25T08:04:21.810Z,10.43
2018-02-25T08:07:25.161Z,9.80
2018-02-25T08:10:28.412Z,8.83
2018-02-25T08:13:31.673Z,10.13
2018-02-25T08:16:34.884Z,8.97
2018-02-25T08:19:38.118Z,9.43
2018-02-25T08:22:41.390Z,9.55
2018-02-25T08:25:44.891Z,9.63
2018-02-25T08:28:48.185Z,9.50
2018-02-25T08:31:51.487Z,8.83
2018-02-25T08:34:54.794Z,10.17
2018-02-25T08:37:58.069Z,9.93
2018-02-25T08:41:01.426Z,9.23
2018-02-25T08:44:04.617Z,8.80
2018-02-25T08:47:07.951Z,10.00
2018-02-25T08:50:11.123Z,9.97
2018-02-25T08:53:14.373Z,8.70
2018-02-25T08:56:17.801Z,8.30
2018-02-25T08:59:21.001Z,8.87
2018-02-25T09:02:24.260Z,9.53
2018-02-25T09:05:27.553Z,8.40
2018-02-25T09:08:30.959Z,9.33
2018-02-25T09:11:34.312Z,8.87
2018-02-25T09:14:37.562Z,8.70
2018-02-25T09:17:40.859Z,8.83
2018-02-25T09:20:44.173Z,8.23
2018-02-25T09:23:47.485Z,9.10
2018-02-25T09:26:50.739Z,8.73
2018-02-25T09:29:53.961Z,8.03
2018-02-25T09:32:57.248Z,7.67
2018-02-25T09:36:00.888Z,7.90
2018-02-25T09:39:04.370Z,6.30
2018-02-25T09:42:07.630Z,7.40
2018-02-25T09:45:10.833Z,6.83
2018-02-25T09:48:14.760Z,7.20
2018-02-25T09:51:17.977Z,6.90
2018-02-25T09:54:21.259Z,7.00
2018-02-25T09:57:24.568Z,6.60
2018-02-25T10:00:27.764Z,8.43
2018-02-25T10:03:30.958Z,7.43
2018-02-25T10:06:34.219Z,7.07
2018-02-25T10:09:37.434Z,7.17
2018-02-25T10:12:40.686Z,6.90
2018-02-25T10:15:43.867Z,6.40
2018-02-25T10:18:47.142Z,5.67
2018-02-25T10:21:50.418Z,6.43
2018-02-25T10:24:53.805Z,6.50
2018-02-25T10:27:57.024Z,6.60
2018-02-25T10:31:00.436Z,6.37
2018-02-25T10:34:03.754Z,6.93
2018-02-25T10:37:07.030Z,6.80
2018-02-25T10:40:10.306Z,6.57
2018-02-25T10:43:13.621Z,6.63
2018-02-25T10:46:16.812Z,6.73
2018-02-25T10:49:20.106Z,6.30
2018-02-25T10:52:23.355Z,6.03
2018-02-25T10:55:26.684Z,6.73
2018-02-25T10:58:29.915Z,6.07
2018-02-25T11:01:33.130Z,5.77
2018-02-25T11:04:36.367Z,5.97
2018-02-25T11:07:39.691Z,5.20
2018-02-25T11:10:43.135Z,5.30
2018-02-25T11:13:46.449Z,5.50
2018-02-25T11:16:49.689Z,5.93
2018-02-25T11:19:53.012Z,5.57
2018-02-25T11:22:56.488Z,6.00
2018-02-25T11:25:59.704Z,5.47
2018-02-25T11:29:02.927Z,5.07
2018-02-25T11:32:06.168Z,5.23
2018-02-25T11:35:09.419Z,4.97
2018-02-25T11:38:12.807Z,5.47
2018-02-25T11:41:16.164Z,4.97
2018-02-25T11:44:19.434Z,4.80
2018-02-25T11:47:22.728Z,5.00
2018-02-25T11:50:26.027Z,4.37
2018-02-25T11:53:29.325Z,5.63
2018-02-25T11:56:32.710Z,5.40
2018-02-25T11:59:35.876Z,5.10
2018-02-25T12:02:39.153Z,6.47
2018-02-25T12:05:42.416Z,6.10
2018-02-25T12:08:45.714Z,5.93
2018-02-25T12:11:49.025Z,6.37
2018-02-25T12:14:59.262Z,5.60
2018-02-25T12:17:55.516Z,6.20
2018-02-25T12:20:58.901Z,5.13
2018-02-25T12:24:02.185Z,6.07
2018-02-25T12:27:05.494Z,6.43
2018-02-25T12:30:08.882Z,6.07
2018-02-25T12:33:12.135Z,5.73
2018-02-25T12:36:15.479Z,6.17
2018-02-25T12:39:18.786Z,5.27
2018-02-25T12:42:23.108Z,5.93
2018-02-25T12:45:26.350Z,5.77
2018-02-25T12:48:29.965Z,4.87
2018-02-25T12:51:33.192Z,4.73
2018-02-25T12:54:36.502Z,4.73
2018-02-25T12:57:39.763Z,4.73
2018-02-25T13:00:43.478Z,5.00
2018-02-25T13:03:46.628Z,4.23
2018-02-25T13:06:50.070Z,4.90
2018-02-25T13:09:53.312Z,5.77
2018-02-25T13:12:56.536Z,4.17
2018-02-25T13:15:59.865Z,4.73
2018-02-25T13:19:03.118Z,4.37
2018-02-25T13:22:06.393Z,4.40
2018-02-25T13:25:09.785Z,5.27
2018-02-25T13:28:13.008Z,5.10
2018-02-25T13:31:16.218Z,5.80
2018-02-25T13:34:19.514Z,4.70
2018-02-25T13:37:22.792Z,4.87
2018-02-25T13:40:26.087Z,5.10
2018-02-25T13:43:29.387Z,4.75
2018-02-25T13:46:32.690Z,4.50
2018-02-25T13:49:35.973Z,4.33
2018-02-25T13:52:39.274Z,4.23
2018-02-25T13:55:44.219Z,4.57
2018-02-25T13:58:47.570Z,5.53
2018-02-25T14:01:50.900Z,5.50
2018-02-25T14:04:54.206Z,5.07
2018-02-25T14:07:57.462Z,5.30
2018-02-25T14:11:00.802Z,5.33
2018-02-25T14:14:03.998Z,5.33
2018-02-25T14:17:07.166Z,5.80
2018-02-25T14:20:10.473Z,5.47
2018-02-25T14:23:13.889Z,5.83
2018-02-25T14:26:17.253Z,4.75
2018-02-25T14:29:20.597Z,5.27
2018-02-25T14:32:23.875Z,5.33
2018-02-25T14:35:27.241Z,5.50
2018-02-25T14:38:30.469Z,4.70
2018-02-25T14:41:33.799Z,5.67
2018-02-25T14:44:37.378Z,5.10
2018-02-25T14:47:40.692Z,5.10
2018-02-25T14:50:44.994Z,4.73
2018-02-25T14:53:48.966Z,4.63
2018-02-25T14:56:52.459Z,5.20
2018-02-25T14:59:55.705Z,4.80
2018-02-25T15:03:00.417Z,5.03
2018-02-25T15:06:03.686Z,5.27
2018-02-25T15:09:06.931Z,5.33
2018-02-25T15:12:10.156Z,4.97
2018-02-25T15:15:13.441Z,4.47
2018-02-25T15:18:16.724Z,4.00
2018-02-25T15:21:19.890Z,4.37
2018-02-25T15:24:23.217Z,4.40
2018-02-25T15:27:26.433Z,4.20
2018-02-25T15:30:29.674Z,4.57
2018-02-25T15:33:32.847Z,4.67
2018-02-25T15:36:36.114Z,4.17
2018-02-25T15:39:39.317Z,10.10
2018-02-25T15:42:43.474Z,5.03
2018-02-25T15:45:46.636Z,6.27
2018-02-25T15:48:49.795Z,5.43
2018-02-25T15:51:53.074Z,4.03
2018-02-25T15:54:56.357Z,4.40
2018-02-25T15:57:59.593Z,4.40
2018-02-25T16:01:02.886Z,4.90
2018-02-25T16:04:06.190Z,5.53
2018-02-25T16:07:09.451Z,6.53
2018-02-25T16:10:12.718Z,4.17
2018-02-25T16:13:16.011Z,4.50
2018-02-25T16:16:19.258Z,4.58
2018-02-25T16:19:22.593Z,4.58
2018-02-25T16:22:25.865Z,4.13
2018-02-25T16:25:29.145Z,3.70
2018-02-25T16:28:32.520Z,4.00
2018-02-25T16:31:35.878Z,3.70
2018-02-25T16:34:39.078Z,4.22
2018-02-25T16:37:42.304Z,4.20
2018-02-25T16:40:46.734Z,4.40
2018-02-25T16:43:49.899Z,5.30
2018-02-25T16:46:53.674Z,5.50
2018-02-25T16:49:56.985Z,4.13
2018-02-25T16:53:00.223Z,5.10
2018-02-25T16:56:03.525Z,5.27
2018-02-25T16:59:06.771Z,4.97
2018-02-25T17:02:10.153Z,6.50
2018-02-25T17:05:13.491Z,4.43
2018-02-25T17:08:16.842Z,4.47
2018-02-25T17:11:20.029Z,4.37
2018-02-25T17:14:23.197Z,4.43
2018-02-25T17:17:26.418Z,5.10
2018-02-25T17:20:30.031Z,4.12
2018-02-25T17:23:33.246Z,4.90
2018-02-25T17:26:36.550Z,3.80
2018-02-25T17:29:39.864Z,4.23
2018-02-25T17:32:43.138Z,4.77
2018-02-25T17:35:46.779Z,4.40
2018-02-25T17:38:50.034Z,4.07
2018-02-25T17:41:53.997Z,4.00
2018-02-25T17:44:57.251Z,5.03
2018-02-25T17:48:00.564Z,4.50
2018-02-25T17:51:03.831Z,4.80
2018-02-25T17:54:07.061Z,5.00
2018-02-25T17:57:10.297Z,5.90
2018-02-25T18:00:13.606Z,5.67
2018-02-25T18:03:16.862Z,10.87
2018-02-25T18:06:20.146Z,6.20
2018-02-25T18:09:23.384Z,5.37
2018-02-25T18:12:26.805Z,6.10
2018-02-25T18:15:30.174Z,4.80
2018-02-25T18:18:33.364Z,4.97
2018-02-25T18:21:36.705Z,6.03
2018-02-25T18:24:39.890Z,5.30
2018-02-25T18:27:43.153Z,4.37
2018-02-25T18:30:46.463Z,5.23
2018-02-25T18:33:49.637Z,4.40
2018-02-25T18:36:52.878Z,4.63
2018-02-25T18:39:56.129Z,5.33
2018-02-25T18:42:59.364Z,5.43
2018-02-25T18:46:02.613Z,5.90
2018-02-25T18:49:06.017Z,5.10
2018-02-25T18:52:09.363Z,4.93
2018-02-25T18:55:12.674Z,5.80
2018-02-25T18:58:15.919Z,4.57
2018-02-25T19:01:19.197Z,5.30
2018-02-25T19:04:22.510Z,6.80
2018-02-25T19:07:25.813Z,6.47
2018-02-25T19:10:29.106Z,5.00
2018-02-25T19:13:32.393Z,5.87
2018-02-25T19:16:35.682Z,5.07
2018-02-25T19:19:38.981Z,4.43
2018-02-25T19:22:42.309Z,5.03
2018-02-25T19:25:45.970Z,4.93
2018-02-25T19:28:49.550Z,5.03
2018-02-25T19:31:52.777Z,4.07
2018-02-25T19:34:56.114Z,4.43
2018-02-25T19:39:02.542Z,4.23
2018-02-25T19:42:09.850Z,4.50
2018-02-25T19:45:13.145Z,4.10
2018-02-25T19:48:16.489Z,6.63
2018-02-25T19:51:19.791Z,5.30
2018-02-25T19:54:23.254Z,5.17
2018-02-25T19:57:26.577Z,4.97
2018-02-25T20:00:29.862Z,4.60
2018-02-25T20:03:33.155Z,5.07
2018-02-25T20:06:36.352Z,5.57
2018-02-25T20:09:39.574Z,6.50
2018-02-25T20:12:42.864Z,5.33
2018-02-25T20:15:46.298Z,4.87
2018-02-25T20:18:49.547Z,5.50
2018-02-25T20:21:53.002Z,4.70
2018-02-25T20:24:56.357Z,5.40
2018-02-25T20:27:59.649Z,5.73
2018-02-25T20:31:02.974Z,5.00
2018-02-25T20:34:06.262Z,5.80
2018-02-25T20:37:09.550Z,4.40
2018-02-25T20:40:12.939Z,4.53
2018-02-25T20:43:16.189Z,4.50
2018-02-25T20:46:19.420Z,4.50
2018-02-25T20:49:22.722Z,4.80
2018-02-25T20:52:26.076Z,4.63
2018-02-25T20:55:29.317Z,3.90
2018-02-25T20:58:32.635Z,4.67
2018-02-25T21:01:35.913Z,11.40
2018-02-25T21:04:39.215Z,14.27
2018-02-25T21:07:42.507Z,11.67
2018-02-25T21:10:45.937Z,32.10
2018-02-25T21:13:49.161Z,5.73
2018-02-25T21:16:52.389Z,4.13
2018-02-25T21:19:55.714Z,4.23
2018-02-25T21:22:58.980Z,4.20
2018-02-25T21:26:02.271Z,4.30
2018-02-25T21:29:05.584Z,5.00
2018-02-25T21:32:08.818Z,4.13
2018-02-25T21:35:11.990Z,4.17
2018-02-25T21:38:15.322Z,4.50
2018-02-25T21:41:18.566Z,4.13
2018-02-25T21:44:21.866Z,4.37
2018-02-25T21:47:25.285Z,4.33
2018-02-25T21:50:28.550Z,4.37
2018-02-25T21:53:35.954Z,3.87
2018-02-25T21:56:43.522Z,4.10
2018-02-25T22:00:22.654Z,3.40
2018-02-25T22:03:35.114Z,4.10
2018-02-25T22:06:38.373Z,4.27
2018-02-25T22:09:41.675Z,4.03
2018-02-25T22:12:44.959Z,4.33
2018-02-25T22:15:48.258Z,4.13
2018-02-25T22:18:51.393Z,3.77
2018-02-25T22:21:54.682Z,4.07
2018-02-25T22:24:57.991Z,4.17
2018-02-25T22:28:01.248Z,3.53
2018-02-25T22:31:04.381Z,4.40
2018-02-25T22:34:07.654Z,3.83
2018-02-25T22:37:10.973Z,3.70
2018-02-25T22:40:14.225Z,3.97
2018-02-25T22:43:17.573Z,3.80
2018-02-25T22:46:20.799Z,4.40
2018-02-25T22:49:24.046Z,4.03
2018-02-25T22:52:27.283Z,4.13
2018-02-25T22:55:30.760Z,3.90
2018-02-25T22:58:33.974Z,4.57
2018-02-25T23:01:37.191Z,3.90
2018-02-25T23:04:40.468Z,3.67
2018-02-25T23:07:43.742Z,4.17
2018-02-25T23:10:47.085Z,3.90
2018-02-25T23:13:50.342Z,4.10
2018-02-25T23:16:53.625Z,3.77
2018-02-25T23:19:56.838Z,4.00
2018-02-25T23:23:00.123Z,3.80
2018-02-25T23:26:03.413Z,3.80
2018-02-25T23:29:06.634Z,3.63
2018-02-25T23:32:10.186Z,3.70
2018-02-25T23:35:13.361Z,3.67
2018-02-25T23:38:16.646Z,4.00
2018-02-25T23:41:19.900Z,3.90
2018-02-25T23:44:23.217Z,4.13
2018-02-25T23:47:26.517Z,3.97
2018-02-25T23:50:29.813Z,4.40
2018-02-25T23:53:33.092Z,3.83
2018-02-25T23:56:36.443Z,5.17
2018-02-25T23:59:39.693Z,4.13
